Mercer Island, WA (98040)

9:08 PM PST on December 20, 2014 (GMT -0800)
hillman city | Change Station
CLOSE
Current Station
Personal Weather Station
Location: Seattle, WA
Elevation: 213 ft
Nearby Weather Stations
Active Advisory: Areal Flood Watch Active Notice: Record Report

Elev 213 ft 47.55 °N, 122.28 °W | Updated 7 seconds ago

Overcast
Overcast
55.8 °F
Feels Like 55.8 °F
N
6.3
Wind Variable Wind from SSW
Gusts 6.3 mph

Today
High -- | Low -- °F
--% Chance of Precip.
Yesterday
High -- | Low -- °F
Precip. -- in
7:53 AM 4:19 PM
Waning Crescent, 1% visible
Pressure 29.47 in
Visibility 10.0 miles
Clouds Mostly Cloudy 2000 ft
Mostly Cloudy 2400 ft
Mostly Cloudy 11000 ft
Dew Point 53 °F
Humidity 91%
Rainfall 0.51 in
Snow Depth Not available.
UV 0 out of 12
Pollen .40 out of 12
Air Quality Not available.
Flu Activity Not available.
METAR KBFI 210453Z 19014G23KT 10SM BKN020 BKN024 BKN110 14/11 A2947 RMK AO2 RAB0357E30 SLP978 P0000 T01440106

More Conditions Fewer Conditions

Pressure 29.47 in
Visibility 10.0 miles
Clouds Mostly Cloudy 2000 ft
Mostly Cloudy 2400 ft
Mostly Cloudy 11000 ft
Dew Point 53 °F
Humidity 91%
Rainfall 0.51 in
Snow Depth Not available.
UV 0 out of 12
Pollen .40 out of 12
Air Quality Not available.
Flu Activity Not available.
METAR KBFI 210453Z 19014G23KT 10SM BKN020 BKN024 BKN110 14/11 A2947 RMK AO2 RAB0357E30 SLP978 P0000 T01440106

More Conditions Fewer Conditions

10-Day Weather Forecast

Almanac

Astronomy

Dec. 20, 2014 Rise Set
Actual Time
Civil Twilight
Nautical Twilight
Astronomical Twilight
Moon
Length of Visible Light
Length of Day
Tomorrow will be .
, % of the Moon is Illuminated

Today's Extremes

State Highs State Lows

Community

WunderPhotos

Upload Photos

1,779,358 photos uploaded!

WunderBlogs® & News

Nearby

Air Quality

  Air Quality AQ Index Pollutant
Not available.

Snow Depth

Station Depth Elevation

Earthquake Activity

City Distance Mag. Time & Date
Minimum magnitude displayed is 2.5.

Coastal Water Temperatures

Place Temperature

Nearby Weather Stations